METAR AND TAF INFORMATION


HECA 211700Z 33010KT CAVOK 18/05 Q1018 NOSIG
HECA 211630Z 32012KT CAVOK 18/04 Q1018 NOSIG
TAF HECA 211100Z 2112/2218 33010KT 9999 SCT025 TEMPO 2203/2206 VRB03KT 4000 HZ NSC

 AIRPORT MAP

 RUNWAY INFORMATION
Runway 05C Runway length 13120 ft Runway width 197 ft
Runway elevation 382 ft Runway displaced threshold 0 ft Runway heading 45
Runway 23C Runway length 13120 ft Runway width 197 ft
Runway elevation 0 ft Runway displaced threshold 0 ft Runway heading 225
Runway 05L Runway length 10830 ft Runway width 197 ft
Runway elevation 190 ft Runway displaced threshold 0 ft Runway heading 49
Runway 23R Runway length 10830 ft Runway width 197 ft
Runway elevation 199 ft Runway displaced threshold 0 ft Runway heading 229
Runway 05R Runway length 13124 ft Runway width 197 ft
Runway elevation 382 ft Runway displaced threshold 0 ft Runway heading 49
Runway 23L Runway length 13124 ft Runway width 197 ft
Runway elevation 375 ft Runway displaced threshold 0 ft Runway heading 229

 AIRPORT FREQUENCIES
Type APP Name APP Frequency 119.05 MHZ
Type ATIS Name ATIS Frequency 122.6 MHZ
Type GND Name GND Frequency 121.9 MHZ
Type MISC Name VOLMET Frequency 126.2 MHZ
Type PFLT Name PREFLIGHT Frequency 120.1 MHZ
Type rdo Name cairo radi Frequency 11.3 MHZ
Type TWR Name TWR Frequency 118.1 MHZ
Type Volmet Name Frequency 124.6 MHZ

 AIRPORT NEAR NAVIGATION AIDS
Type NDB Name Cairo Frequency 310 KHZ
Type VOR-DME Name Cairo Frequency 112500 KHZ
Type VOR-DME Name Cairo Frequency 115200 KHZ
Type NDB Name Cairo Frequency 317 KHZ